createdAt,value
2023-05-15T00:01:17.910Z,6.32
2023-05-15T00:04:20.488Z,7.80
2023-05-15T00:07:22.482Z,6.35
2023-05-15T00:10:24.713Z,7.03
2023-05-15T00:13:27.133Z,7.75
2023-05-15T00:16:29.490Z,6.80
2023-05-15T00:19:31.381Z,6.50
2023-05-15T00:22:33.566Z,6.95
2023-05-15T00:25:35.599Z,6.20
2023-05-15T00:28:37.893Z,6.40
2023-05-15T00:31:39.884Z,7.10
2023-05-15T00:34:42.250Z,6.28
2023-05-15T00:37:44.244Z,10.65
2023-05-15T00:40:46.983Z,8.90
2023-05-15T00:43:53.922Z,9.10
2023-05-15T00:46:57.608Z,8.25
2023-05-15T00:50:00.281Z,7.35
2023-05-15T00:53:03.566Z,8.35
2023-05-15T00:56:06.556Z,7.60
2023-05-15T00:59:10.054Z,10.65
2023-05-15T01:02:15.964Z,7.75
2023-05-15T01:05:18.396Z,9.20
2023-05-15T01:08:27.212Z,8.02
2023-05-15T01:11:35.953Z,8.23
2023-05-15T01:14:37.902Z,11.45
2023-05-15T01:17:40.560Z,8.47
2023-05-15T01:21:16.272Z,8.20
2023-05-15T01:24:56.577Z,10.13
2023-05-15T01:28:09.511Z,10.23
2023-05-15T01:31:18.817Z,9.00
2023-05-15T01:34:26.991Z,9.45
2023-05-15T01:37:31.972Z,9.47
2023-05-15T01:40:34.533Z,9.23
2023-05-15T01:43:42.264Z,9.10
2023-05-15T01:46:49.551Z,13.07
2023-05-15T01:49:55.495Z,9.10
2023-05-15T01:53:00.871Z,9.73
2023-05-15T01:56:06.921Z,8.90
2023-05-15T01:59:09.687Z,9.13
2023-05-15T02:02:13.374Z,9.20
2023-05-15T02:05:16.360Z,9.00
2023-05-15T02:08:19.432Z,9.68
2023-05-15T02:11:21.496Z,8.50
2023-05-15T02:14:26.158Z,8.40
2023-05-15T02:17:29.437Z,7.53
2023-05-15T02:20:32.105Z,11.93
2023-05-15T02:23:34.077Z,8.23
2023-05-15T02:26:51.490Z,8.40
2023-05-15T02:30:11.153Z,9.03
2023-05-15T02:33:52.611Z,8.70
2023-05-15T02:36:57.964Z,7.97
2023-05-15T02:40:02.111Z,8.75
2023-05-15T02:43:05.631Z,8.10
2023-05-15T02:46:08.715Z,8.83
2023-05-15T02:49:12.237Z,8.45
2023-05-15T02:52:14.523Z,7.88
2023-05-15T02:55:16.522Z,9.13
2023-05-15T02:58:18.832Z,8.33
2023-05-15T03:01:21.209Z,9.98
2023-05-15T03:04:23.692Z,9.60
2023-05-15T03:07:25.836Z,10.88
2023-05-15T03:10:28.070Z,10.87
2023-05-15T03:13:29.997Z,10.60
2023-05-15T03:16:32.261Z,8.90
2023-05-15T03:19:34.236Z,10.57
2023-05-15T03:22:36.521Z,10.53
2023-05-15T03:25:38.462Z,9.57
2023-05-15T03:28:42.284Z,10.60
2023-05-15T03:31:44.433Z,10.90
2023-05-15T03:34:46.799Z,11.53
2023-05-15T03:37:48.770Z,11.52
2023-05-15T03:40:53.845Z,11.57
2023-05-15T03:43:55.930Z,12.02
2023-05-15T03:46:58.115Z,11.10
2023-05-15T03:50:00.028Z,11.27
2023-05-15T03:53:02.276Z,11.13
2023-05-15T03:56:04.744Z,11.20
2023-05-15T03:59:07.336Z,11.00
2023-05-15T04:02:09.263Z,11.23
2023-05-15T04:05:11.712Z,11.70
2023-05-15T04:08:13.696Z,11.83
2023-05-15T04:11:16.573Z,14.68
2023-05-15T04:14:18.596Z,11.60
2023-05-15T04:17:20.850Z,11.60
2023-05-15T04:20:24.786Z,12.27
2023-05-15T04:23:26.995Z,11.88
2023-05-15T04:26:29.043Z,11.43
2023-05-15T04:29:31.529Z,12.57
2023-05-15T04:32:36.378Z,12.30
2023-05-15T04:35:38.876Z,13.83
2023-05-15T04:38:41.202Z,13.67
2023-05-15T04:41:45.619Z,13.17
2023-05-15T04:44:47.789Z,13.97
2023-05-15T04:47:51.378Z,13.53
2023-05-15T04:50:53.471Z,13.13
2023-05-15T04:53:55.762Z,17.37
2023-05-15T04:56:58.037Z,15.90
2023-05-15T05:00:00.714Z,16.20
2023-05-15T05:03:02.803Z,19.53
2023-05-15T05:06:05.323Z,15.57
2023-05-15T05:09:07.233Z,21.10
2023-05-15T05:12:10.024Z,19.17
2023-05-15T05:15:12.144Z,15.10
2023-05-15T05:18:14.437Z,15.53
2023-05-15T05:21:16.429Z,16.20
2023-05-15T05:24:18.739Z,16.80
2023-05-15T05:27:20.633Z,16.67
2023-05-15T05:30:23.031Z,14.23
2023-05-15T05:33:25.025Z,16.20
2023-05-15T05:36:27.599Z,16.70
2023-05-15T05:39:29.573Z,18.37
2023-05-15T05:42:31.836Z,17.57
2023-05-15T05:45:39.852Z,16.73
2023-05-15T05:48:42.511Z,19.40
2023-05-15T05:51:46.204Z,20.77
2023-05-15T05:54:48.398Z,18.67
2023-05-15T05:57:51.115Z,23.33
2023-05-15T06:00:54.115Z,24.60
2023-05-15T06:03:56.253Z,22.57
2023-05-15T06:06:58.574Z,21.60
2023-05-15T06:10:01.242Z,22.13
2023-05-15T06:13:03.449Z,17.53
2023-05-15T06:16:05.871Z,13.87
2023-05-15T06:19:08.122Z,18.60
2023-05-15T06:22:10.221Z,14.33
2023-05-15T06:25:14.181Z,16.80
2023-05-15T06:28:16.074Z,13.93
2023-05-15T06:31:18.488Z,15.73
2023-05-15T06:34:20.501Z,12.60
2023-05-15T06:37:22.674Z,12.13
2023-05-15T06:40:24.847Z,10.80
2023-05-15T06:43:27.227Z,8.77
2023-05-15T06:46:29.347Z,10.67
2023-05-15T06:49:31.705Z,11.10
2023-05-15T06:52:33.886Z,11.17
2023-05-15T06:55:38.064Z,13.60
2023-05-15T06:58:39.960Z,13.98
2023-05-15T07:01:42.294Z,13.90
2023-05-15T07:04:44.287Z,13.43
2023-05-15T07:07:46.561Z,12.33
2023-05-15T07:10:49.513Z,15.63
2023-05-15T07:13:53.267Z,11.80
2023-05-15T07:16:55.262Z,12.87
2023-05-15T07:19:57.560Z,9.77
2023-05-15T07:22:59.717Z,10.87
2023-05-15T07:26:02.006Z,9.30
2023-05-15T07:29:04.229Z,6.87
2023-05-15T07:32:07.353Z,6.30
2023-05-15T07:35:11.477Z,6.55
2023-05-15T07:38:13.969Z,6.37
2023-05-15T07:41:16.138Z,7.67
2023-05-15T07:44:18.418Z,6.10
2023-05-15T07:47:20.936Z,5.47
2023-05-15T07:50:23.277Z,5.77
2023-05-15T07:53:25.323Z,7.13
2023-05-15T07:56:28.690Z,5.53
2023-05-15T07:59:31.090Z,5.90
2023-05-15T08:02:33.510Z,5.60
2023-05-15T08:05:35.514Z,6.10
2023-05-15T08:08:37.773Z,6.53
2023-05-15T08:11:42.000Z,6.00
2023-05-15T08:14:44.361Z,5.97
2023-05-15T08:17:46.489Z,6.00
2023-05-15T08:20:49.301Z,6.70
2023-05-15T08:23:54.799Z,5.77
2023-05-15T08:26:57.683Z,9.13
2023-05-15T08:30:02.698Z,6.37
2023-05-15T08:33:05.014Z,6.50
2023-05-15T08:36:07.697Z,6.45
2023-05-15T08:39:10.064Z,6.27
2023-05-15T08:42:34.270Z,5.93
2023-05-15T08:45:37.151Z,12.10
2023-05-15T08:48:42.217Z,10.67
2023-05-15T08:51:44.868Z,8.27
2023-05-15T08:54:48.541Z,12.27
2023-05-15T08:57:51.433Z,9.77
2023-05-15T09:00:53.463Z,9.37
2023-05-15T09:03:55.976Z,10.40
2023-05-15T09:07:00.865Z,10.20
2023-05-15T09:10:03.906Z,12.33
2023-05-15T09:13:07.837Z,9.23
2023-05-15T09:16:10.150Z,13.40
2023-05-15T09:19:14.196Z,9.98
2023-05-15T09:22:18.387Z,11.55
2023-05-15T09:25:37.459Z,9.23
2023-05-15T09:29:01.932Z,11.43
2023-05-15T09:32:09.725Z,11.50
2023-05-15T09:35:31.555Z,11.50
2023-05-15T09:38:35.085Z,11.13
2023-05-15T09:41:42.987Z,11.20
2023-05-15T09:44:46.409Z,10.82
2023-05-15T09:47:48.866Z,10.68
2023-05-15T09:50:51.286Z,11.13
2023-05-15T09:53:55.358Z,12.40
2023-05-15T09:57:07.165Z,12.07
2023-05-15T10:00:11.883Z,11.75
2023-05-15T10:03:14.660Z,12.27
2023-05-15T10:06:19.018Z,13.45
2023-05-15T10:09:21.957Z,11.40
2023-05-15T10:12:25.043Z,11.50
2023-05-15T10:15:27.706Z,11.95
2023-05-15T10:18:33.177Z,10.32
2023-05-15T10:21:40.605Z,11.05
2023-05-15T10:24:44.927Z,11.20
2023-05-15T10:27:48.080Z,10.63
2023-05-15T10:30:50.904Z,10.63
2023-05-15T10:33:55.468Z,11.05
2023-05-15T10:36:58.360Z,10.80
2023-05-15T10:40:01.528Z,10.57
2023-05-15T10:43:04.881Z,14.40
2023-05-15T10:46:07.507Z,8.63
2023-05-15T10:49:09.945Z,10.95
2023-05-15T10:52:11.999Z,11.02
2023-05-15T10:55:16.829Z,11.30
2023-05-15T10:58:25.112Z,10.73
2023-05-15T11:01:27.981Z,11.80
2023-05-15T11:04:33.496Z,10.65
2023-05-15T11:07:35.934Z,11.65
2023-05-15T11:10:38.964Z,12.32
2023-05-15T11:14:06.068Z,10.68
2023-05-15T11:17:10.314Z,12.93
2023-05-15T11:20:12.915Z,12.30
2023-05-15T11:23:14.860Z,10.32
2023-05-15T11:26:20.899Z,11.85
2023-05-15T11:29:24.244Z,10.18
2023-05-15T11:32:48.454Z,12.18
2023-05-15T11:35:58.534Z,12.40
2023-05-15T11:39:01.773Z,12.23
2023-05-15T11:42:12.018Z,12.07
2023-05-15T11:45:15.222Z,13.75
2023-05-15T11:48:18.527Z,11.98
2023-05-15T11:51:24.867Z,10.50
2023-05-15T11:54:27.402Z,11.30
2023-05-15T11:57:29.838Z,12.10
2023-05-15T12:00:32.078Z,12.07
2023-05-15T12:03:36.364Z,11.15
2023-05-15T12:06:39.896Z,12.85
2023-05-15T12:09:42.291Z,12.60
2023-05-15T12:12:46.187Z,11.55
2023-05-15T12:15:48.599Z,12.40
2023-05-15T12:18:50.691Z,12.88
2023-05-15T12:21:52.957Z,13.48
2023-05-15T12:24:59.729Z,12.27
2023-05-15T12:28:03.934Z,12.10
2023-05-15T12:31:05.949Z,12.77
2023-05-15T12:34:09.219Z,12.48
2023-05-15T12:37:14.484Z,12.48
2023-05-15T12:40:31.682Z,11.40
2023-05-15T12:43:34.929Z,12.48
2023-05-15T12:46:37.498Z,10.00
2023-05-15T12:49:41.747Z,11.48
2023-05-15T12:52:54.488Z,11.40
2023-05-15T12:55:56.573Z,12.95
2023-05-15T12:58:58.831Z,11.30
2023-05-15T13:02:01.098Z,11.88
2023-05-15T13:05:04.944Z,12.75
2023-05-15T13:08:09.970Z,13.27
2023-05-15T13:11:16.708Z,12.88
2023-05-15T13:14:19.469Z,12.13
2023-05-15T13:17:22.236Z,11.07
2023-05-15T13:20:24.667Z,11.98
2023-05-15T13:23:27.056Z,11.40
2023-05-15T13:26:29.163Z,9.93
2023-05-15T13:29:31.400Z,10.65
2023-05-15T13:32:33.338Z,9.80
2023-05-15T13:35:36.733Z,8.80
2023-05-15T13:38:38.717Z,9.43
2023-05-15T13:41:40.933Z,9.18
2023-05-15T13:44:42.887Z,8.68
2023-05-15T13:47:45.586Z,9.68
2023-05-15T13:50:48.063Z,11.52
2023-05-15T13:53:50.421Z,9.38
2023-05-15T13:56:52.461Z,8.82
2023-05-15T13:59:54.710Z,9.35
2023-05-15T14:02:56.748Z,8.35
2023-05-15T14:05:59.015Z,9.18
2023-05-15T14:09:00.936Z,8.68
2023-05-15T14:12:03.607Z,8.82
2023-05-15T14:15:06.001Z,10.10
2023-05-15T14:18:08.279Z,11.68
2023-05-15T14:21:10.341Z,13.52
2023-05-15T14:24:13.478Z,13.05
2023-05-15T14:27:15.488Z,12.60
2023-05-15T14:30:18.415Z,11.20
2023-05-15T14:33:20.652Z,12.77
2023-05-15T14:36:22.861Z,13.05
2023-05-15T14:39:24.898Z,12.23
2023-05-15T14:42:27.330Z,12.73
2023-05-15T14:45:29.409Z,11.88
2023-05-15T14:48:31.893Z,11.50
2023-05-15T14:51:33.950Z,11.50
2023-05-15T14:54:37.238Z,10.65
2023-05-15T14:57:39.288Z,11.27
2023-05-15T15:00:41.637Z,11.20
2023-05-15T15:03:43.696Z,13.52
2023-05-15T15:06:47.855Z,10.98
2023-05-15T15:09:49.871Z,11.00
2023-05-15T15:12:52.215Z,11.45
2023-05-15T15:15:55.820Z,11.90
2023-05-15T15:18:58.056Z,13.13
2023-05-15T15:22:00.009Z,11.60
2023-05-15T15:25:02.280Z,11.80
2023-05-15T15:28:04.472Z,12.90
2023-05-15T15:31:06.712Z,12.90
2023-05-15T15:34:09.057Z,14.50
2023-05-15T15:37:11.438Z,15.60
2023-05-15T15:40:13.582Z,13.30
2023-05-15T15:43:15.957Z,12.60
2023-05-15T15:46:18.048Z,8.45
2023-05-15T15:49:20.591Z,7.45
2023-05-15T15:52:22.516Z,5.60
2023-05-15T15:55:24.833Z,7.18
2023-05-15T15:58:26.836Z,7.43
2023-05-15T16:01:29.178Z,5.18
2023-05-15T16:04:31.220Z,5.40
2023-05-15T16:07:34.329Z,5.68
2023-05-15T16:10:36.364Z,6.30
2023-05-15T16:13:40.869Z,6.38
2023-05-15T16:16:43.121Z,6.60
2023-05-15T16:19:45.494Z,7.60
2023-05-15T16:22:47.420Z,8.32
2023-05-15T16:25:49.697Z,9.13
2023-05-15T16:28:51.600Z,9.35
2023-05-15T16:31:54.039Z,10.68
2023-05-15T16:34:56.024Z,11.80
2023-05-15T16:37:58.314Z,11.60
2023-05-15T16:41:00.289Z,13.35
2023-05-15T16:44:03.399Z,13.48
2023-05-15T16:47:05.615Z,14.00
2023-05-15T16:50:08.532Z,14.00
2023-05-15T16:53:10.686Z,15.40
2023-05-15T16:56:14.114Z,15.88
2023-05-15T16:59:16.509Z,15.15
2023-05-15T17:02:18.740Z,15.95
2023-05-15T17:05:21.219Z,17.00
2023-05-15T17:08:23.512Z,15.52
2023-05-15T17:11:25.616Z,14.25
2023-05-15T17:14:27.905Z,13.27
2023-05-15T17:17:29.960Z,11.57
2023-05-15T17:20:32.191Z,11.35
2023-05-15T17:23:34.477Z,10.18
2023-05-15T17:26:36.695Z,9.73
2023-05-15T17:29:38.671Z,9.50
2023-05-15T17:32:41.174Z,9.05
2023-05-15T17:35:43.256Z,7.68
2023-05-15T17:38:45.520Z,8.95
2023-05-15T17:41:47.473Z,7.78
2023-05-15T17:44:49.705Z,8.15
2023-05-15T17:47:52.318Z,8.77
2023-05-15T17:50:54.880Z,8.70
2023-05-15T17:53:56.811Z,9.05
2023-05-15T17:56:59.151Z,10.85
2023-05-15T18:00:01.045Z,13.60
2023-05-15T18:03:03.719Z,9.80
2023-05-15T18:06:06.106Z,9.15
2023-05-15T18:09:09.365Z,10.05
2023-05-15T18:12:11.291Z,9.88
2023-05-15T18:15:13.525Z,9.48
2023-05-15T18:18:15.518Z,9.88
2023-05-15T18:21:18.335Z,8.90
2023-05-15T18:24:20.333Z,8.30
2023-05-15T18:27:22.567Z,8.95
2023-05-15T18:30:25.593Z,9.13
2023-05-15T18:33:32.682Z,7.63
2023-05-15T18:36:34.741Z,7.47
2023-05-15T18:39:38.376Z,6.95
2023-05-15T18:42:40.420Z,7.85
2023-05-15T18:45:42.775Z,7.38
2023-05-15T18:48:44.818Z,7.97
2023-05-15T18:51:47.126Z,5.47
2023-05-15T18:54:59.304Z,6.13
2023-05-15T18:58:01.883Z,5.60
2023-05-15T19:01:03.917Z,5.93
2023-05-15T19:04:06.518Z,6.15
2023-05-15T19:07:08.454Z,6.28
2023-05-15T19:10:11.110Z,6.95
2023-05-15T19:13:13.147Z,6.50
2023-05-15T19:16:15.638Z,6.95
2023-05-15T19:19:18.143Z,8.35
2023-05-15T19:22:20.960Z,9.13
2023-05-15T19:25:23.036Z,8.80
2023-05-15T19:28:29.002Z,10.55
2023-05-15T19:31:32.415Z,7.75
2023-05-15T19:34:35.122Z,8.00
2023-05-15T19:37:37.378Z,6.82
2023-05-15T19:40:44.007Z,7.57
2023-05-15T19:43:47.018Z,8.68
2023-05-15T19:46:49.459Z,7.15
2023-05-15T19:49:51.372Z,7.57
2023-05-15T19:52:53.712Z,7.32
2023-05-15T19:55:56.685Z,7.35
2023-05-15T19:59:00.406Z,6.85
2023-05-15T20:02:03.065Z,7.38
2023-05-15T20:05:06.108Z,6.93
2023-05-15T20:08:08.029Z,8.60
2023-05-15T20:11:10.322Z,7.63
2023-05-15T20:14:14.003Z,19.20
2023-05-15T20:17:17.173Z,7.60
2023-05-15T20:20:19.352Z,6.70
2023-05-15T20:23:22.094Z,5.95
2023-05-15T20:26:24.114Z,5.82
2023-05-15T20:29:26.322Z,5.93
2023-05-15T20:32:28.424Z,6.72
2023-05-15T20:35:31.108Z,7.22
2023-05-15T20:38:33.860Z,6.93
2023-05-15T20:41:37.040Z,6.30
2023-05-15T20:44:39.468Z,6.53
2023-05-15T20:47:41.883Z,6.63
2023-05-15T20:50:44.122Z,6.80
2023-05-15T20:53:46.285Z,7.15
2023-05-15T20:56:48.235Z,6.60
2023-05-15T20:59:50.720Z,6.53
2023-05-15T21:02:52.783Z,5.90
2023-05-15T21:05:57.061Z,6.90
2023-05-15T21:08:59.647Z,6.65
2023-05-15T21:12:03.765Z,5.95
2023-05-15T21:15:06.459Z,6.07
2023-05-15T21:18:08.819Z,7.00
2023-05-15T21:21:10.790Z,7.05
2023-05-15T21:24:13.180Z,8.05
2023-05-15T21:27:35.267Z,9.07
2023-05-15T21:30:37.748Z,6.57
2023-05-15T21:33:41.456Z,6.83
2023-05-15T21:36:43.939Z,7.30
2023-05-15T21:39:45.981Z,6.47
2023-05-15T21:42:48.245Z,6.67
2023-05-15T21:45:50.250Z,6.57
2023-05-15T21:48:52.427Z,6.90
2023-05-15T21:51:54.404Z,6.85
2023-05-15T21:54:56.694Z,6.53
2023-05-15T21:57:58.623Z,7.05
2023-05-15T22:01:01.319Z,6.55
2023-05-15T22:04:03.430Z,7.70
2023-05-15T22:07:06.188Z,8.03
2023-05-15T22:10:08.733Z,7.95
2023-05-15T22:13:11.099Z,7.80
2023-05-15T22:16:13.204Z,10.10
2023-05-15T22:19:31.547Z,7.97
2023-05-15T22:22:35.708Z,8.30
2023-05-15T22:25:56.137Z,9.87
2023-05-15T22:28:58.587Z,8.30
2023-05-15T22:32:00.725Z,9.23
2023-05-15T22:35:21.047Z,8.50
2023-05-15T22:38:41.450Z,8.37
2023-05-15T22:41:43.635Z,7.63
2023-05-15T22:44:46.483Z,8.40
2023-05-15T22:47:49.467Z,9.23
2023-05-15T22:50:52.475Z,9.77
2023-05-15T22:53:55.146Z,9.40
2023-05-15T22:56:57.153Z,8.70
2023-05-15T22:59:59.352Z,8.98
2023-05-15T23:03:19.730Z,9.13
2023-05-15T23:06:42.817Z,9.90
2023-05-15T23:09:45.281Z,9.38
2023-05-15T23:12:47.178Z,10.00
2023-05-15T23:15:49.422Z,8.70
2023-05-15T23:18:54.417Z,8.67
2023-05-15T23:21:56.846Z,8.35
2023-05-15T23:24:58.854Z,8.75
2023-05-15T23:28:01.120Z,8.53
2023-05-15T23:31:03.179Z,8.70
2023-05-15T23:34:05.342Z,8.63
2023-05-15T23:37:07.208Z,9.60
2023-05-15T23:40:09.787Z,9.52
2023-05-15T23:43:11.737Z,10.00
2023-05-15T23:46:13.961Z,10.43
2023-05-15T23:49:15.967Z,10.47
2023-05-15T23:52:18.395Z,10.65
2023-05-15T23:55:20.590Z,9.90
2023-05-15T23:58:23.541Z,11.20
